Terminal Aerodrome Forecast
Issued by NWS New Orleans/Baton Rouge, LA

Home | Current Version | Previous Version | Text Only | Print | Product List | Glossary On
Versions: 1 2 3 4 5 6 7 8 9 10 11 12 13 14 15 16 17 18 19 20 21 22 23 24 25 26 27 28 29 30 31 32 33 34 35 36 37 38 39
000
FTUS44 KLIX 020103 AAA
TAFNEW
TAF AMD
KNEW 020103Z 0201/0224 15015G21KT P6SM SKC
     FM020200 15010KT P6SM SCT150
     FM020500 13005KT P6SM BKN025
     FM021100 12006KT P6SM SHRA BKN020
      TEMPO 0211/0215 VRB35KT 2SM TSRA BKN015CB
     FM021500 16006KT P6SM SHRA OVC025=

USA.gov is the U.S. government's official web portal to all federal, state and local government web resources and services.